Terminal Aerodrome Forecast
Issued by NWS Corpus Christi, TX

Home | Current Version | Previous Version | Text Only | Print | Product List | Glossary On
Versions: 1 2 3 4 5 6 7 8 9 10 11 12 13 14 15 16 17 18 19 20
000
FTUS44 KCRP 031100
TAFCRP
TAF
KCRP 031125Z 0312/0412 03005KT 1/2SM -DZ FG VV002
      TEMPO 0312/0313 1/4SM FG
     FM031700 16010KT 3SM -DZ BR OVC007
     FM032000 15014G20KT 6SM BR OVC015
     FM040100 16010KT 3SM BR OVC002=

USA.gov is the U.S. government's official web portal to all federal, state and local government web resources and services.